createdAt,value
2019-04-05T00:02:04.269Z,5.88
2019-04-05T00:04:31.666Z,5.77
2019-04-05T00:06:59.085Z,5.74
2019-04-05T00:09:26.493Z,5.70
2019-04-05T00:11:53.895Z,5.75
2019-04-05T00:14:21.309Z,5.83
2019-04-05T00:16:48.726Z,5.88
2019-04-05T00:19:16.129Z,5.85
2019-04-05T00:21:43.535Z,5.94
2019-04-05T00:24:10.936Z,5.96
2019-04-05T00:26:38.346Z,5.86
2019-04-05T00:29:05.738Z,5.79
2019-04-05T00:31:33.153Z,5.70
2019-04-05T00:34:00.556Z,5.67
2019-04-05T00:36:28.012Z,5.73
2019-04-05T00:38:55.422Z,5.65
2019-04-05T00:41:22.823Z,5.60
2019-04-05T00:43:50.219Z,5.56
2019-04-05T00:46:17.647Z,5.63
2019-04-05T00:48:45.032Z,5.80
2019-04-05T00:51:12.426Z,5.93
2019-04-05T00:53:39.832Z,6.04
2019-04-05T00:56:07.250Z,6.08
2019-04-05T00:58:34.650Z,6.12
2019-04-05T01:01:02.068Z,6.13
2019-04-05T01:03:29.519Z,6.17
2019-04-05T01:05:56.931Z,6.21
2019-04-05T01:08:24.337Z,6.14
2019-04-05T01:10:51.768Z,6.12
2019-04-05T01:13:19.163Z,6.10
2019-04-05T01:15:46.559Z,6.08
2019-04-05T01:18:13.963Z,6.02
2019-04-05T01:23:08.072Z,6.20
2019-04-05T01:25:35.456Z,6.12
2019-04-05T01:28:02.870Z,6.00
2019-04-05T01:30:30.274Z,6.08
2019-04-05T01:32:57.696Z,6.19
2019-04-05T01:35:25.154Z,6.23
2019-04-05T01:37:52.546Z,6.23
2019-04-05T01:40:19.958Z,6.21
2019-04-05T01:42:47.357Z,6.17
2019-04-05T01:45:14.787Z,6.14
2019-04-05T01:47:42.214Z,6.12
2019-04-05T01:50:09.607Z,6.03
2019-04-05T01:52:36.990Z,5.99
2019-04-05T01:55:05.235Z,6.07
2019-04-05T01:57:32.678Z,6.09
2019-04-05T02:00:00.132Z,6.10
2019-04-05T02:02:27.536Z,6.11
2019-04-05T02:04:54.961Z,6.18
2019-04-05T02:07:22.397Z,6.26
2019-04-05T02:09:49.795Z,6.27
2019-04-05T02:12:17.211Z,6.28
2019-04-05T02:14:44.614Z,6.11
2019-04-05T02:17:12.014Z,6.06
2019-04-05T02:19:39.422Z,6.00
2019-04-05T02:22:06.831Z,5.99
2019-04-05T02:24:34.254Z,5.95
2019-04-05T02:27:01.653Z,5.91
2019-04-05T02:29:29.047Z,5.91
2019-04-05T02:31:56.452Z,5.71
2019-04-05T02:34:23.893Z,5.63
2019-04-05T02:36:51.288Z,5.79
2019-04-05T02:39:18.690Z,5.89
2019-04-05T02:41:46.111Z,5.78
2019-04-05T02:44:13.519Z,5.68
2019-04-05T02:46:40.928Z,5.64
2019-04-05T02:49:08.329Z,5.64
2019-04-05T02:51:36.324Z,5.72
2019-04-05T02:54:03.733Z,5.76
2019-04-05T02:56:31.210Z,5.78
2019-04-05T02:58:58.648Z,5.67
2019-04-05T03:01:26.054Z,5.67
2019-04-05T03:03:53.455Z,5.66
2019-04-05T03:06:20.851Z,5.76
2019-04-05T03:08:48.303Z,5.85
2019-04-05T03:11:15.712Z,5.78
2019-04-05T03:13:43.940Z,5.76
2019-04-05T03:16:12.270Z,5.79
2019-04-05T03:18:39.678Z,5.81
2019-04-05T03:21:07.078Z,5.89
2019-04-05T03:23:34.492Z,5.88
2019-04-05T03:26:01.892Z,5.94
2019-04-05T03:28:29.300Z,5.93
2019-04-05T03:30:56.701Z,5.93
2019-04-05T03:33:24.131Z,5.87
2019-04-05T03:35:51.587Z,5.78
2019-04-05T03:38:18.986Z,5.85
2019-04-05T03:40:46.399Z,5.89
2019-04-05T03:43:13.811Z,5.85
2019-04-05T03:45:41.247Z,5.81
2019-04-05T03:48:08.646Z,5.83
2019-04-05T03:50:36.080Z,5.88
2019-04-05T03:53:03.490Z,5.94
2019-04-05T03:55:30.889Z,5.97
2019-04-05T03:57:58.321Z,6.03
2019-04-05T04:00:25.737Z,6.12
2019-04-05T04:02:53.142Z,6.06
2019-04-05T04:05:20.576Z,5.86
2019-04-05T04:07:47.971Z,5.58
2019-04-05T04:10:15.390Z,5.45
2019-04-05T04:12:42.783Z,5.35
2019-04-05T04:15:14.180Z,5.32
2019-04-05T04:17:40.482Z,5.21
2019-04-05T04:20:08.076Z,5.17
2019-04-05T04:22:35.494Z,5.09
2019-04-05T04:25:02.904Z,5.06
2019-04-05T04:27:30.318Z,5.07
2019-04-05T04:30:00.341Z,5.06
2019-04-05T04:32:25.241Z,5.00
2019-04-05T04:34:52.641Z,5.00
2019-04-05T04:37:20.044Z,5.00
2019-04-05T04:39:47.435Z,5.00
2019-04-05T04:42:14.858Z,5.04
2019-04-05T04:44:42.322Z,5.06
2019-04-05T04:47:09.721Z,4.99
2019-04-05T04:49:37.156Z,5.03
2019-04-05T04:52:05.132Z,5.06
2019-04-05T04:54:32.544Z,5.22
2019-04-05T04:56:59.940Z,5.37
2019-04-05T04:59:27.343Z,5.55
2019-04-05T05:01:54.760Z,5.62
2019-04-05T05:04:22.193Z,5.64
2019-04-05T05:06:49.660Z,5.68
2019-04-05T05:09:17.068Z,5.73
2019-04-05T05:11:44.465Z,5.71
2019-04-05T05:14:11.888Z,5.68
2019-04-05T05:16:39.307Z,5.68
2019-04-05T05:19:06.726Z,5.72
2019-04-05T05:21:34.149Z,5.66
2019-04-05T05:24:01.563Z,5.70
2019-04-05T05:26:28.971Z,5.76
2019-04-05T05:28:56.365Z,5.78
2019-04-05T05:31:23.767Z,5.78
2019-04-05T05:33:51.176Z,5.81
2019-04-05T05:36:18.582Z,5.88
2019-04-05T05:38:46.175Z,5.92
2019-04-05T05:41:13.675Z,6.00
2019-04-05T05:43:41.090Z,5.99
2019-04-05T05:46:08.559Z,5.99
2019-04-05T05:48:35.964Z,6.09
2019-04-05T05:51:03.396Z,6.29
2019-04-05T05:53:30.787Z,6.45
2019-04-05T05:55:58.184Z,6.53
2019-04-05T05:58:26.383Z,6.69
2019-04-05T06:00:52.999Z,6.80
2019-04-05T06:03:20.478Z,6.72
2019-04-05T06:05:47.899Z,6.72
2019-04-05T06:08:15.454Z,6.62
2019-04-05T06:10:42.844Z,6.53
2019-04-05T06:13:10.265Z,6.33
2019-04-05T06:15:37.814Z,6.29
2019-04-05T06:20:38.988Z,6.24
2019-04-05T06:23:06.433Z,6.17
2019-04-05T06:25:33.830Z,6.21
2019-04-05T06:28:01.232Z,6.20
2019-04-05T06:30:28.986Z,6.14
2019-04-05T06:32:56.139Z,6.13
2019-04-05T06:35:23.536Z,6.07
2019-04-05T06:37:50.936Z,6.08
2019-04-05T06:40:18.516Z,6.07
2019-04-05T06:42:45.916Z,6.01
2019-04-05T06:45:13.524Z,6.04
2019-04-05T06:47:40.911Z,5.97
2019-04-05T06:50:08.315Z,5.97
2019-04-05T06:52:35.709Z,6.00
2019-04-05T06:55:03.106Z,6.11
2019-04-05T06:57:30.511Z,6.13
2019-04-05T06:59:57.904Z,6.12
2019-04-05T07:02:25.317Z,6.12
2019-04-05T07:04:52.711Z,6.12
2019-04-05T07:07:20.129Z,6.18
2019-04-05T07:09:47.674Z,6.30
2019-04-05T07:12:15.107Z,6.33
2019-04-05T07:14:42.616Z,6.41
2019-04-05T07:17:10.028Z,6.41
2019-04-05T07:19:37.450Z,6.41
2019-04-05T07:22:04.857Z,6.42
2019-04-05T07:24:32.257Z,6.52
2019-04-05T07:26:59.957Z,6.50
2019-04-05T07:29:27.440Z,6.47
2019-04-05T07:31:55.365Z,6.52
2019-04-05T07:34:22.761Z,6.53
2019-04-05T07:36:50.180Z,6.44
2019-04-05T07:39:17.634Z,6.52
2019-04-05T07:41:45.228Z,6.66
2019-04-05T07:44:12.680Z,6.69
2019-04-05T07:46:40.202Z,6.62
2019-04-05T07:49:07.643Z,6.65
2019-04-05T07:51:35.079Z,6.83
2019-04-05T07:54:02.475Z,6.90
2019-04-05T07:56:29.971Z,6.94
2019-04-05T07:58:57.447Z,7.00
2019-04-05T08:01:24.852Z,7.08
2019-04-05T08:03:53.174Z,7.24
2019-04-05T08:06:20.590Z,7.40
2019-04-05T08:08:58.768Z,7.53
2019-04-05T08:11:26.285Z,7.57
2019-04-05T08:13:53.693Z,7.59
2019-04-05T08:16:21.099Z,7.49
2019-04-05T08:18:57.505Z,7.48
2019-04-05T08:21:16.054Z,7.67
2019-04-05T08:23:44.287Z,7.53
2019-04-05T08:26:11.743Z,7.42
2019-04-05T08:28:39.147Z,7.62
2019-04-05T08:31:10.559Z,7.92
2019-04-05T08:33:36.260Z,8.09
2019-04-05T08:36:00.654Z,8.14
2019-04-05T08:38:28.108Z,7.99
2019-04-05T08:40:55.608Z,8.10
2019-04-05T08:43:23.014Z,8.31
2019-04-05T08:45:49.985Z,8.41
2019-04-05T08:48:16.944Z,8.52
2019-04-05T08:50:43.876Z,8.47
2019-04-05T08:53:10.818Z,8.53
2019-04-05T08:55:37.762Z,8.70
2019-04-05T08:58:04.709Z,8.83
2019-04-05T09:00:31.652Z,8.86
2019-04-05T09:02:58.624Z,8.91
2019-04-05T09:05:25.572Z,9.04
2019-04-05T09:07:52.576Z,9.12
2019-04-05T09:10:19.571Z,9.28
2019-04-05T09:12:46.474Z,9.25
2019-04-05T09:15:13.428Z,9.04
2019-04-05T09:17:40.389Z,8.99
2019-04-05T09:20:07.318Z,8.97
2019-04-05T09:22:34.332Z,8.74
2019-04-05T09:25:01.291Z,8.61
2019-04-05T09:27:28.239Z,8.65
2019-04-05T09:29:55.190Z,8.78
2019-04-05T09:32:22.211Z,8.76
2019-04-05T09:34:49.239Z,8.71
2019-04-05T09:37:16.234Z,8.75
2019-04-05T09:39:43.212Z,8.88
2019-04-05T09:42:10.159Z,8.99
2019-04-05T09:44:37.217Z,9.08
2019-04-05T09:47:04.184Z,9.25
2019-04-05T09:49:37.111Z,9.41
2019-04-05T09:51:58.093Z,9.67
2019-04-05T09:54:25.420Z,10.13
2019-04-05T09:56:52.359Z,10.52
2019-04-05T09:59:20.334Z,10.85
2019-04-05T10:01:47.405Z,10.93
2019-04-05T10:04:14.351Z,10.97
2019-04-05T10:06:41.361Z,11.21
2019-04-05T10:09:08.314Z,11.25
2019-04-05T10:11:35.263Z,11.36
2019-04-05T10:14:02.253Z,11.35
2019-04-05T10:16:29.207Z,11.52
2019-04-05T10:18:56.168Z,11.84
2019-04-05T10:21:23.138Z,12.14
2019-04-05T10:23:50.230Z,12.11
2019-04-05T10:26:17.167Z,12.10
2019-04-05T10:28:44.137Z,12.05
2019-04-05T10:31:11.090Z,12.12
2019-04-05T10:33:38.028Z,12.26
2019-04-05T10:36:04.966Z,12.47
2019-04-05T10:38:31.948Z,12.92
2019-04-05T10:40:58.891Z,13.22
2019-04-05T10:43:25.899Z,13.43
2019-04-05T10:45:52.858Z,13.56
2019-04-05T10:48:19.841Z,13.59
2019-04-05T10:50:46.793Z,13.80
2019-04-05T10:53:13.788Z,13.47
2019-04-05T10:55:40.781Z,13.27
2019-04-05T10:58:07.738Z,13.37
2019-04-05T11:00:34.694Z,13.48
2019-04-05T11:03:02.144Z,13.49
2019-04-05T11:05:29.560Z,13.47
2019-04-05T11:07:56.960Z,13.43
2019-04-05T11:10:24.425Z,13.66
2019-04-05T11:12:51.847Z,13.79
2019-04-05T11:15:18.804Z,14.17
2019-04-05T11:17:46.277Z,14.31
2019-04-05T11:20:21.343Z,14.33
2019-04-05T11:22:41.280Z,14.19
2019-04-05T11:25:08.708Z,14.26
2019-04-05T11:27:36.111Z,14.48
2019-04-05T11:30:03.504Z,14.58
2019-04-05T11:32:30.916Z,14.63
2019-04-05T11:34:57.936Z,14.43
2019-04-05T11:37:24.892Z,14.34
2019-04-05T11:39:52.134Z,14.36
2019-04-05T11:42:19.089Z,14.59
2019-04-05T11:44:46.510Z,14.59
2019-04-05T11:47:13.934Z,14.68
2019-04-05T11:49:41.343Z,14.94
2019-04-05T11:52:08.746Z,15.04
2019-04-05T11:54:36.183Z,15.05
2019-04-05T11:57:03.573Z,15.01
2019-04-05T11:59:30.999Z,15.06
2019-04-05T12:01:58.428Z,15.38
2019-04-05T12:04:25.846Z,15.71
2019-04-05T12:06:53.246Z,15.83
2019-04-05T12:09:20.695Z,16.13
2019-04-05T12:11:48.224Z,16.50
2019-04-05T12:14:15.640Z,16.60
2019-04-05T12:16:43.069Z,16.62
2019-04-05T12:19:10.467Z,16.58
2019-04-05T12:21:37.883Z,16.52
2019-04-05T12:24:05.296Z,16.44
2019-04-05T12:26:34.530Z,16.17
2019-04-05T12:29:00.167Z,16.13
2019-04-05T12:31:27.573Z,16.18
2019-04-05T12:33:54.981Z,16.04
2019-04-05T12:36:22.764Z,15.82
2019-04-05T12:38:49.806Z,15.81
2019-04-05T12:41:18.246Z,15.93
2019-04-05T12:43:44.539Z,15.84
2019-04-05T12:46:14.942Z,15.74
2019-04-05T12:48:38.132Z,16.08
2019-04-05T12:51:05.945Z,16.25
2019-04-05T12:53:33.094Z,16.57
2019-04-05T12:56:00.515Z,17.06
2019-04-05T12:58:28.676Z,17.19
2019-04-05T13:00:56.955Z,17.52
2019-04-05T13:03:23.078Z,17.15
2019-04-05T13:05:51.503Z,16.67
2019-04-05T13:08:17.743Z,17.24
2019-04-05T13:10:44.720Z,17.71
2019-04-05T13:13:12.130Z,18.15
2019-04-05T13:15:40.290Z,18.39
2019-04-05T13:18:06.045Z,18.61
2019-04-05T13:20:33.067Z,18.85
2019-04-05T13:23:03.142Z,19.05
2019-04-05T13:25:28.138Z,19.23
2019-04-05T13:27:55.605Z,19.21
2019-04-05T13:30:23.015Z,19.19
2019-04-05T13:32:53.441Z,19.20
2019-04-05T13:35:18.846Z,19.35
2019-04-05T13:37:46.256Z,19.52
2019-04-05T13:40:13.659Z,19.53
2019-04-05T13:42:41.051Z,19.26
2019-04-05T13:45:08.525Z,19.08
2019-04-05T13:47:38.974Z,18.93
2019-04-05T13:50:03.381Z,18.95
2019-04-05T13:52:30.816Z,19.06
2019-04-05T13:54:58.235Z,18.98
2019-04-05T13:57:28.354Z,19.07
2019-04-05T13:59:53.164Z,19.17
2019-04-05T14:02:21.225Z,19.22
2019-04-05T14:04:48.013Z,19.26
2019-04-05T14:07:15.457Z,19.26
2019-04-05T14:09:42.865Z,19.45
2019-04-05T14:12:10.290Z,19.57
2019-04-05T14:14:39.447Z,19.47
2019-04-05T14:17:05.162Z,19.25
2019-04-05T14:19:32.564Z,18.70
2019-04-05T14:22:08.365Z,18.62
2019-04-05T14:24:28.351Z,18.67
2019-04-05T14:26:55.748Z,18.42
2019-04-05T14:29:23.250Z,18.07
2019-04-05T14:31:50.657Z,17.74
2019-04-05T14:34:18.068Z,17.61
2019-04-05T14:36:45.475Z,17.60
2019-04-05T14:39:12.894Z,17.71
2019-04-05T14:41:40.289Z,17.69
2019-04-05T14:44:07.719Z,17.90
2019-04-05T14:46:35.127Z,18.03
2019-04-05T14:49:02.541Z,17.83
2019-04-05T14:51:30.907Z,17.81
2019-04-05T14:53:59.571Z,17.64
2019-04-05T14:56:26.806Z,17.68
2019-04-05T14:58:52.792Z,18.18
2019-04-05T15:01:20.199Z,18.12
2019-04-05T15:03:47.697Z,17.90
2019-04-05T15:06:15.123Z,17.61
2019-04-05T15:08:42.566Z,17.30
2019-04-05T15:11:11.191Z,16.86
2019-04-05T15:13:37.409Z,16.54
2019-04-05T15:16:04.930Z,16.56
2019-04-05T15:18:32.352Z,16.65
2019-04-05T15:20:59.747Z,16.56
2019-04-05T15:23:27.225Z,16.37
2019-04-05T15:25:55.169Z,16.23
2019-04-05T15:28:22.457Z,15.72
2019-04-05T15:30:49.816Z,15.08
2019-04-05T15:33:17.016Z,14.89
2019-04-05T15:35:44.431Z,15.36
2019-04-05T15:38:12.055Z,15.42
2019-04-05T15:43:13.343Z,16.31
2019-04-05T15:45:42.782Z,16.59
2019-04-05T15:48:09.067Z,16.95
2019-04-05T15:50:36.484Z,17.08
2019-04-05T15:53:03.921Z,17.08
2019-04-05T15:55:34.319Z,17.05
2019-04-05T15:58:01.414Z,17.10
2019-04-05T16:00:37.067Z,16.85
2019-04-05T16:03:04.493Z,16.61
2019-04-05T16:05:32.939Z,16.16
2019-04-05T16:08:00.346Z,15.42
2019-04-05T16:10:27.787Z,15.65
2019-04-05T16:12:55.222Z,15.80
2019-04-05T16:15:22.641Z,15.43
2019-04-05T16:17:50.098Z,14.59
2019-04-05T16:27:01.269Z,12.85
2019-04-05T16:29:28.711Z,13.04
2019-04-05T16:31:56.103Z,13.10
2019-04-05T16:34:23.524Z,13.26
2019-04-05T16:36:50.919Z,13.40
2019-04-05T16:39:18.408Z,13.34
2019-04-05T16:41:45.832Z,13.08
2019-04-05T16:44:13.255Z,12.84
2019-04-05T16:46:40.814Z,12.81
2019-04-05T16:49:08.222Z,12.86
2019-04-05T16:51:35.627Z,13.01
2019-04-05T16:54:03.024Z,12.69
2019-04-05T16:56:30.506Z,12.17
2019-04-05T16:58:57.928Z,12.06
2019-04-05T17:01:27.340Z,12.08
2019-04-05T17:03:52.860Z,11.88
2019-04-05T17:06:20.286Z,11.71
2019-04-05T17:08:47.674Z,11.62
2019-04-05T17:11:15.186Z,11.48
2019-04-05T17:13:42.614Z,11.35
2019-04-05T17:16:10.113Z,11.21
2019-04-05T17:18:37.522Z,11.20
2019-04-05T17:21:04.981Z,11.11
2019-04-05T17:23:33.248Z,10.99
2019-04-05T17:25:59.899Z,10.97
2019-04-05T17:28:27.308Z,11.02
2019-04-05T17:30:54.748Z,11.07
2019-04-05T17:33:22.539Z,10.91
2019-04-05T17:35:49.967Z,10.74
2019-04-05T17:38:17.367Z,10.52
2019-04-05T17:40:44.789Z,10.40
2019-04-05T17:43:12.194Z,10.18
2019-04-05T17:45:39.796Z,10.03
2019-04-05T17:48:07.193Z,9.92
2019-04-05T17:50:34.592Z,9.76
2019-04-05T17:53:12.177Z,9.59
2019-04-05T17:55:29.426Z,9.53
2019-04-05T17:57:56.835Z,9.50
2019-04-05T18:00:24.245Z,9.42
2019-04-05T18:02:51.641Z,9.30
2019-04-05T18:05:19.064Z,9.22
2019-04-05T18:07:46.498Z,9.22
2019-04-05T18:10:14.144Z,9.18
2019-04-05T18:12:41.587Z,9.15
2019-04-05T18:15:09.016Z,9.15
2019-04-05T18:17:36.652Z,9.12
2019-04-05T18:20:04.710Z,9.08
2019-04-05T18:22:32.151Z,9.06
2019-04-05T18:24:59.594Z,9.04
2019-04-05T18:27:27.029Z,8.99
2019-04-05T18:29:55.439Z,8.95
2019-04-05T18:32:22.851Z,8.95
2019-04-05T18:34:50.238Z,8.94
2019-04-05T18:37:17.655Z,8.97
2019-04-05T18:39:45.061Z,8.95
2019-04-05T18:42:12.459Z,8.97
2019-04-05T18:44:39.879Z,8.90
2019-04-05T18:47:07.273Z,8.89
2019-04-05T18:49:34.667Z,8.88
2019-04-05T18:52:02.065Z,8.87
2019-04-05T18:54:29.502Z,8.94
2019-04-05T18:56:56.958Z,8.94
2019-04-05T18:59:24.419Z,8.91
2019-04-05T19:01:52.247Z,8.86
2019-04-05T19:04:19.636Z,8.76
2019-04-05T19:06:47.046Z,8.69
2019-04-05T19:09:14.467Z,8.74
2019-04-05T19:11:41.946Z,8.81
2019-04-05T19:14:09.396Z,8.80
2019-04-05T19:16:36.828Z,8.75
2019-04-05T19:19:04.252Z,8.75
2019-04-05T19:21:31.665Z,8.74
2019-04-05T19:23:59.068Z,8.70
2019-04-05T19:26:26.479Z,8.75
2019-04-05T19:28:53.908Z,8.82
2019-04-05T19:48:35.376Z,9.05
2019-04-05T19:51:01.252Z,8.92
2019-04-05T19:53:28.670Z,8.86
2019-04-05T19:55:56.265Z,8.86
2019-04-05T19:58:23.772Z,8.77
2019-04-05T20:00:51.577Z,8.80
2019-04-05T20:03:19.023Z,8.73
2019-04-05T20:05:46.548Z,8.66
2019-04-05T20:08:14.068Z,8.64
2019-04-05T20:10:41.520Z,8.58
2019-04-05T20:13:08.971Z,8.65
2019-04-05T20:15:36.832Z,8.54
2019-04-05T20:18:04.297Z,8.41
2019-04-05T20:20:31.946Z,8.39
2019-04-05T20:22:59.696Z,8.40
2019-04-05T20:28:00.935Z,8.35
2019-04-05T20:30:29.549Z,8.33
2019-04-05T20:32:56.975Z,8.29
2019-04-05T20:35:24.429Z,8.29
2019-04-05T20:37:52.343Z,8.37
2019-04-05T20:40:19.813Z,8.48
2019-04-05T20:42:47.441Z,8.46
2019-04-05T20:45:14.932Z,8.35
2019-04-05T20:47:42.380Z,8.26
2019-04-05T20:50:09.807Z,8.21
2019-04-05T20:52:37.219Z,8.15
2019-04-05T20:55:05.321Z,8.14
2019-04-05T20:57:32.739Z,8.11
2019-04-05T21:00:00.136Z,8.10
2019-04-05T21:02:27.530Z,8.08
2019-04-05T21:04:54.956Z,8.08
2019-04-05T21:07:22.399Z,8.12
2019-04-05T21:09:49.916Z,8.14
2019-04-05T21:12:17.278Z,8.17
2019-04-05T21:14:44.691Z,8.17
2019-04-05T21:17:12.086Z,8.18
2019-04-05T21:19:39.512Z,8.18
2019-04-05T21:22:06.926Z,8.25
2019-04-05T21:24:36.236Z,8.33
2019-04-05T21:27:01.767Z,8.14
2019-04-05T21:29:29.893Z,7.98
2019-04-05T21:31:57.328Z,7.87
2019-04-05T21:34:24.747Z,7.81
2019-04-05T21:36:52.203Z,7.84
2019-04-05T21:39:19.665Z,7.89
2019-04-05T21:41:47.068Z,7.85
2019-04-05T21:44:14.532Z,7.77
2019-04-05T21:46:41.935Z,7.77
2019-04-05T21:49:09.351Z,7.77
2019-04-05T21:51:36.779Z,7.79
2019-04-05T21:54:04.356Z,7.89
2019-04-05T21:56:31.770Z,7.91
2019-04-05T21:58:59.283Z,7.91
2019-04-05T22:01:26.735Z,7.78
2019-04-05T22:03:54.129Z,7.78
2019-04-05T22:06:21.615Z,7.75
2019-04-05T22:08:49.006Z,7.73
2019-04-05T22:11:16.451Z,7.76
2019-04-05T22:13:43.853Z,7.74
2019-04-05T22:16:11.270Z,7.79
2019-04-05T22:18:38.724Z,7.89
2019-04-05T22:21:06.276Z,7.89
2019-04-05T22:23:33.659Z,7.93
2019-04-05T22:26:01.068Z,7.96
2019-04-05T22:28:28.550Z,8.01
2019-04-05T22:30:55.891Z,7.91
2019-04-05T22:33:23.289Z,7.82
2019-04-05T22:35:50.694Z,7.69
2019-04-05T22:38:18.115Z,7.65
2019-04-05T22:40:46.495Z,7.69
2019-04-05T22:43:13.920Z,7.84
2019-04-05T22:45:41.339Z,7.93
2019-04-05T22:48:08.733Z,7.86
2019-04-05T22:50:36.159Z,7.83
2019-04-05T22:53:04.224Z,7.88
2019-04-05T22:55:31.623Z,7.76
2019-04-05T22:57:59.033Z,7.71
2019-04-05T23:00:26.411Z,7.71
2019-04-05T23:02:53.831Z,7.74
2019-04-05T23:05:21.239Z,7.68
2019-04-05T23:07:48.722Z,7.67
2019-04-05T23:10:16.159Z,7.66
2019-04-05T23:12:43.540Z,7.51
2019-04-05T23:15:11.011Z,7.42
2019-04-05T23:17:38.436Z,7.50
2019-04-05T23:20:05.826Z,7.45
2019-04-05T23:22:33.231Z,7.29
2019-04-05T23:25:00.637Z,7.22
2019-04-05T23:27:28.041Z,7.29
2019-04-05T23:29:55.446Z,7.32
2019-04-05T23:32:22.964Z,7.33
2019-04-05T23:34:50.359Z,7.21
2019-04-05T23:37:17.833Z,7.21
2019-04-05T23:39:45.225Z,7.09
2019-04-05T23:42:12.737Z,6.95
2019-04-05T23:44:40.124Z,6.97
2019-04-05T23:47:07.564Z,7.03
2019-04-05T23:49:35.778Z,6.97
2019-04-05T23:52:03.189Z,6.98
2019-04-05T23:54:30.670Z,6.98
2019-04-05T23:56:58.419Z,7.06
2019-04-05T23:59:25.844Z,7.14
